ウシュアイア の空港の天気 - METARとTAF

ウシュアイア空港 ( SAWH / USH ) - アルゼンチン ティエラ・デル・フエゴ州、ウシュアイア
飛行場実況気象(Metar)
観測時間07/16 03:00 ART (07/16 06:00 UTC)
風向・風速北 3m/s
視程10km以上
天気現象
少しの雲 雲底高度 1370m
気温-2℃
湿度80%
気圧1021hPa
METARSAWH 160600Z 36005KT 9999 FEW045 M02/M05 Q1021
過去の天気等 Google飛行場航空写真 Wunderground天気予報

過去48時間のMETAR

飛行場予報(TAF)
発表時間: 7/16 02:00 ART (7/16 05:00 UTC)
予報対象時間: 16日3時 ART ~ 17日3時 ART
風向・風速北北西 3m/s
視程10km以上
全天の4割程度の雲 雲底高度 1220m
16日7時 ART ~ 16日9時 ART に徐々に
風向・風速西北西 5m/s
全天の8割程度の雲 雲底高度 910m
TAF SAWH 160500Z 1606/1706 34005KT 9999 SCT040 TX03/1618Z TNM04/1611Z
BECMG 1610/1612 30010KT BKN030